sensor_id;sensor_type;location;lat;lon;timestamp;pressure;altitude;pressure_sealevel;temperature
65290;BMP180;51893;59.754;10.110;2022-11-06T00:02:18;100402.20;;;5.20
65290;BMP180;51893;59.754;10.110;2022-11-06T00:04:49;100394.20;;;5.20
65290;BMP180;51893;59.754;10.110;2022-11-06T00:07:20;100397.20;;;5.20
65290;BMP180;51893;59.754;10.110;2022-11-06T00:09:49;100390.80;;;5.24
65290;BMP180;51893;59.754;10.110;2022-11-06T00:12:17;100387.60;;;5.30
65290;BMP180;51893;59.754;10.110;2022-11-06T00:14:45;100394.20;;;5.30
65290;BMP180;51893;59.754;10.110;2022-11-06T00:17:14;100395.60;;;5.30
65290;BMP180;51893;59.754;10.110;2022-11-06T00:19:44;100395.40;;;5.30
65290;BMP180;51893;59.754;10.110;2022-11-06T00:22:14;100405.80;;;5.20
65290;BMP180;51893;59.754;10.110;2022-11-06T00:24:44;100404.60;;;5.20
65290;BMP180;51893;59.754;10.110;2022-11-06T00:27:13;100400.80;;;5.30
65290;BMP180;51893;59.754;10.110;2022-11-06T00:29:44;100398.00;;;5.30
65290;BMP180;51893;59.754;10.110;2022-11-06T00:32:12;100400.60;;;5.30
65290;BMP180;51893;59.754;10.110;2022-11-06T00:34:41;100403.60;;;5.30
65290;BMP180;51893;59.754;10.110;2022-11-06T00:37:13;100399.00;;;5.30
65290;BMP180;51893;59.754;10.110;2022-11-06T00:39:41;100397.80;;;5.20
65290;BMP180;51893;59.754;10.110;2022-11-06T00:42:12;100400.80;;;5.20
65290;BMP180;51893;59.754;10.110;2022-11-06T00:44:41;100399.40;;;5.20
65290;BMP180;51893;59.754;10.110;2022-11-06T00:47:09;100386.80;;;5.20
65290;BMP180;51893;59.754;10.110;2022-11-06T00:49:38;100390.80;;;5.20
65290;BMP180;51893;59.754;10.110;2022-11-06T00:52:08;100390.20;;;5.20
65290;BMP180;51893;59.754;10.110;2022-11-06T00:54:38;100390.80;;;5.20
65290;BMP180;51893;59.754;10.110;2022-11-06T00:57:06;100384.80;;;5.30
65290;BMP180;51893;59.754;10.110;2022-11-06T00:59:34;100388.00;;;5.30
65290;BMP180;51893;59.754;10.110;2022-11-06T01:02:04;100390.80;;;5.38
65290;BMP180;51893;59.754;10.110;2022-11-06T01:04:32;100391.40;;;5.40
65290;BMP180;51893;59.754;10.110;2022-11-06T01:07:00;100390.20;;;5.40
65290;BMP180;51893;59.754;10.110;2022-11-06T01:09:28;100388.40;;;5.40
65290;BMP180;51893;59.754;10.110;2022-11-06T01:11:59;100384.40;;;5.40
65290;BMP180;51893;59.754;10.110;2022-11-06T01:14:43;100387.20;;;5.50
65290;BMP180;51893;59.754;10.110;2022-11-06T01:17:13;100388.20;;;5.50
65290;BMP180;51893;59.754;10.110;2022-11-06T01:19:42;100380.20;;;5.50
65290;BMP180;51893;59.754;10.110;2022-11-06T01:22:09;100380.60;;;5.50
65290;BMP180;51893;59.754;10.110;2022-11-06T01:24:38;100378.40;;;5.50
65290;BMP180;51893;59.754;10.110;2022-11-06T01:27:09;100370.00;;;5.46
65290;BMP180;51893;59.754;10.110;2022-11-06T01:29:54;100371.20;;;5.50
65290;BMP180;51893;59.754;10.110;2022-11-06T01:32:23;100371.00;;;5.50
65290;BMP180;51893;59.754;10.110;2022-11-06T01:34:53;100369.00;;;5.60
65290;BMP180;51893;59.754;10.110;2022-11-06T01:37:21;100367.60;;;5.60
65290;BMP180;51893;59.754;10.110;2022-11-06T01:39:52;100363.60;;;5.70
65290;BMP180;51893;59.754;10.110;2022-11-06T01:42:21;100371.00;;;5.70
65290;BMP180;51893;59.754;10.110;2022-11-06T01:45:33;100366.80;;;5.70
65290;BMP180;51893;59.754;10.110;2022-11-06T01:48:06;100362.80;;;5.70
65290;BMP180;51893;59.754;10.110;2022-11-06T01:50:42;100365.00;;;5.70
65290;BMP180;51893;59.754;10.110;2022-11-06T01:53:12;100365.60;;;5.70
65290;BMP180;51893;59.754;10.110;2022-11-06T01:55:45;100362.60;;;5.80
65290;BMP180;51893;59.754;10.110;2022-11-06T01:58:20;100360.80;;;5.80
65290;BMP180;51893;59.754;10.110;2022-11-06T02:00:49;100356.40;;;5.70
65290;BMP180;51893;59.754;10.110;2022-11-06T02:03:18;100359.80;;;5.66
65290;BMP180;51893;59.754;10.110;2022-11-06T02:05:50;100357.20;;;5.60
65290;BMP180;51893;59.754;10.110;2022-11-06T02:08:21;100352.80;;;5.60
65290;BMP180;51893;59.754;10.110;2022-11-06T02:10:51;100347.60;;;5.70
65290;BMP180;51893;59.754;10.110;2022-11-06T02:13:40;100335.60;;;5.70
65290;BMP180;51893;59.754;10.110;2022-11-06T02:17:07;100338.40;;;5.80
65290;BMP180;51893;59.754;10.110;2022-11-06T02:22:45;100325.80;;;5.80
65290;BMP180;51893;59.754;10.110;2022-11-06T02:25:52;100325.20;;;5.80
65290;BMP180;51893;59.754;10.110;2022-11-06T02:28:36;100319.20;;;5.90
65290;BMP180;51893;59.754;10.110;2022-11-06T02:31:12;100310.20;;;5.90
65290;BMP180;51893;59.754;10.110;2022-11-06T02:33:54;100317.80;;;5.90
65290;BMP180;51893;59.754;10.110;2022-11-06T02:36:48;100327.20;;;6.00
65290;BMP180;51893;59.754;10.110;2022-11-06T02:39:21;100319.60;;;6.10
65290;BMP180;51893;59.754;10.110;2022-11-06T02:41:56;100313.60;;;6.14
65290;BMP180;51893;59.754;10.110;2022-11-06T02:44:29;100305.60;;;6.10
65290;BMP180;51893;59.754;10.110;2022-11-06T02:47:08;100305.80;;;6.00
65290;BMP180;51893;59.754;10.110;2022-11-06T02:49:46;100302.20;;;6.00
65290;BMP180;51893;59.754;10.110;2022-11-06T02:52:31;100293.00;;;6.00
65290;BMP180;51893;59.754;10.110;2022-11-06T02:55:27;100295.00;;;6.06
65290;BMP180;51893;59.754;10.110;2022-11-06T02:58:05;100286.80;;;6.00
65290;BMP180;51893;59.754;10.110;2022-11-06T03:00:37;100282.20;;;6.08
65290;BMP180;51893;59.754;10.110;2022-11-06T03:03:16;100279.60;;;6.10
65290;BMP180;51893;59.754;10.110;2022-11-06T03:05:56;100283.40;;;6.10
65290;BMP180;51893;59.754;10.110;2022-11-06T03:08:33;100279.80;;;6.20
65290;BMP180;51893;59.754;10.110;2022-11-06T03:14:20;100274.40;;;6.30
65290;BMP180;51893;59.754;10.110;2022-11-06T03:16:58;100266.60;;;6.40
65290;BMP180;51893;59.754;10.110;2022-11-06T03:19:54;100264.40;;;6.42
65290;BMP180;51893;59.754;10.110;2022-11-06T03:22:34;100264.40;;;6.50
65290;BMP180;51893;59.754;10.110;2022-11-06T03:25:30;100266.60;;;6.50
65290;BMP180;51893;59.754;10.110;2022-11-06T03:30:47;100256.60;;;6.50
65290;BMP180;51893;59.754;10.110;2022-11-06T03:36:08;100240.80;;;6.60
65290;BMP180;51893;59.754;10.110;2022-11-06T03:38:42;100238.60;;;6.70
65290;BMP180;51893;59.754;10.110;2022-11-06T03:41:22;100231.60;;;6.70
65290;BMP180;51893;59.754;10.110;2022-11-06T03:43:57;100228.20;;;6.70
65290;BMP180;51893;59.754;10.110;2022-11-06T03:46:27;100231.60;;;6.70
65290;BMP180;51893;59.754;10.110;2022-11-06T03:49:06;100222.40;;;6.70
65290;BMP180;51893;59.754;10.110;2022-11-06T03:52:04;100225.00;;;6.70
65290;BMP180;51893;59.754;10.110;2022-11-06T03:54:48;100217.60;;;6.80
65290;BMP180;51893;59.754;10.110;2022-11-06T03:57:52;100216.80;;;6.80
65290;BMP180;51893;59.754;10.110;2022-11-06T04:00:19;100221.80;;;6.90
65290;BMP180;51893;59.754;10.110;2022-11-06T04:02:56;100216.80;;;6.90
65290;BMP180;51893;59.754;10.110;2022-11-06T04:05:41;100204.00;;;6.94
65290;BMP180;51893;59.754;10.110;2022-11-06T04:08:11;100204.60;;;6.90
65290;BMP180;51893;59.754;10.110;2022-11-06T04:11:04;100205.00;;;6.90
65290;BMP180;51893;59.754;10.110;2022-11-06T04:13:53;100204.60;;;7.00
65290;BMP180;51893;59.754;10.110;2022-11-06T04:16:36;100204.20;;;7.00
65290;BMP180;51893;59.754;10.110;2022-11-06T04:19:15;100204.20;;;7.10
65290;BMP180;51893;59.754;10.110;2022-11-06T04:32:19;100197.80;;;7.10
65290;BMP180;51893;59.754;10.110;2022-11-06T04:40:24;100182.20;;;7.10
65290;BMP180;51893;59.754;10.110;2022-11-06T04:43:08;100179.40;;;7.20
65290;BMP180;51893;59.754;10.110;2022-11-06T04:45:48;100172.60;;;7.20
65290;BMP180;51893;59.754;10.110;2022-11-06T04:48:18;100172.00;;;7.22
65290;BMP180;51893;59.754;10.110;2022-11-06T04:50:52;100169.80;;;7.30
65290;BMP180;51893;59.754;10.110;2022-11-06T04:53:22;100163.40;;;7.30
65290;BMP180;51893;59.754;10.110;2022-11-06T04:55:55;100166.40;;;7.30
65290;BMP180;51893;59.754;10.110;2022-11-06T04:58:26;100158.60;;;7.36
65290;BMP180;51893;59.754;10.110;2022-11-06T05:00:55;100152.40;;;7.32
65290;BMP180;51893;59.754;10.110;2022-11-06T05:03:24;100150.80;;;7.34
65290;BMP180;51893;59.754;10.110;2022-11-06T05:05:53;100148.80;;;7.30
65290;BMP180;51893;59.754;10.110;2022-11-06T05:08:22;100156.20;;;7.28
65290;BMP180;51893;59.754;10.110;2022-11-06T05:10:51;100153.80;;;7.20
65290;BMP180;51893;59.754;10.110;2022-11-06T05:13:19;100146.00;;;7.20
65290;BMP180;51893;59.754;10.110;2022-11-06T05:15:47;100146.20;;;7.20
65290;BMP180;51893;59.754;10.110;2022-11-06T05:18:16;100149.00;;;7.20
65290;BMP180;51893;59.754;10.110;2022-11-06T05:20:44;100143.20;;;7.30
65290;BMP180;51893;59.754;10.110;2022-11-06T05:23:14;100144.80;;;7.30
65290;BMP180;51893;59.754;10.110;2022-11-06T05:25:43;100146.20;;;7.30
65290;BMP180;51893;59.754;10.110;2022-11-06T05:28:14;100135.60;;;7.20
65290;BMP180;51893;59.754;10.110;2022-11-06T05:30:44;100132.00;;;7.20
65290;BMP180;51893;59.754;10.110;2022-11-06T05:33:15;100131.00;;;7.20
65290;BMP180;51893;59.754;10.110;2022-11-06T05:35:45;100125.20;;;7.30
65290;BMP180;51893;59.754;10.110;2022-11-06T05:38:15;100127.20;;;7.30
65290;BMP180;51893;59.754;10.110;2022-11-06T05:40:45;100121.20;;;7.40
65290;BMP180;51893;59.754;10.110;2022-11-06T05:43:13;100115.20;;;7.40
65290;BMP180;51893;59.754;10.110;2022-11-06T05:45:42;100112.80;;;7.50
65290;BMP180;51893;59.754;10.110;2022-11-06T05:48:12;100108.20;;;7.50
65290;BMP180;51893;59.754;10.110;2022-11-06T05:50:43;100110.80;;;7.50
65290;BMP180;51893;59.754;10.110;2022-11-06T05:53:11;100101.40;;;7.60
65290;BMP180;51893;59.754;10.110;2022-11-06T05:55:39;100099.40;;;7.60
65290;BMP180;51893;59.754;10.110;2022-11-06T05:58:10;100095.60;;;7.68
65290;BMP180;51893;59.754;10.110;2022-11-06T06:00:40;100095.00;;;7.60
65290;BMP180;51893;59.754;10.110;2022-11-06T06:03:09;100092.60;;;7.56
65290;BMP180;51893;59.754;10.110;2022-11-06T06:05:39;100095.40;;;7.50
65290;BMP180;51893;59.754;10.110;2022-11-06T06:08:08;100090.40;;;7.50
65290;BMP180;51893;59.754;10.110;2022-11-06T06:10:43;100093.40;;;7.40
65290;BMP180;51893;59.754;10.110;2022-11-06T06:13:13;100089.00;;;7.40
65290;BMP180;51893;59.754;10.110;2022-11-06T06:15:42;100083.60;;;7.40
65290;BMP180;51893;59.754;10.110;2022-11-06T06:18:11;100074.20;;;7.40
65290;BMP180;51893;59.754;10.110;2022-11-06T06:20:40;100073.60;;;7.40
65290;BMP180;51893;59.754;10.110;2022-11-06T06:23:11;100072.40;;;7.40
65290;BMP180;51893;59.754;10.110;2022-11-06T06:25:38;100070.60;;;7.40
65290;BMP180;51893;59.754;10.110;2022-11-06T06:28:06;100072.40;;;7.40
65290;BMP180;51893;59.754;10.110;2022-11-06T06:30:35;100070.60;;;7.50
65290;BMP180;51893;59.754;10.110;2022-11-06T06:33:05;100061.40;;;7.50
65290;BMP180;51893;59.754;10.110;2022-11-06T06:35:36;100064.20;;;7.50
65290;BMP180;51893;59.754;10.110;2022-11-06T06:38:07;100057.60;;;7.50
65290;BMP180;51893;59.754;10.110;2022-11-06T06:40:35;100053.00;;;7.50
65290;BMP180;51893;59.754;10.110;2022-11-06T06:43:03;100054.80;;;7.50
65290;BMP180;51893;59.754;10.110;2022-11-06T06:45:31;100051.20;;;7.56
65290;BMP180;51893;59.754;10.110;2022-11-06T06:48:04;100053.00;;;7.60
65290;BMP180;51893;59.754;10.110;2022-11-06T06:50:32;100053.40;;;7.64
65290;BMP180;51893;59.754;10.110;2022-11-06T06:53:00;100053.40;;;7.70
65290;BMP180;51893;59.754;10.110;2022-11-06T06:55:28;100052.00;;;7.70
65290;BMP180;51893;59.754;10.110;2022-11-06T06:58:00;100053.60;;;7.80
65290;BMP180;51893;59.754;10.110;2022-11-06T07:00:29;100054.00;;;7.90
65290;BMP180;51893;59.754;10.110;2022-11-06T07:02:57;100052.20;;;7.90
65290;BMP180;51893;59.754;10.110;2022-11-06T07:05:25;100052.20;;;7.90
65290;BMP180;51893;59.754;10.110;2022-11-06T07:07:53;100055.80;;;7.90
65290;BMP180;51893;59.754;10.110;2022-11-06T07:10:22;100055.20;;;7.90
65290;BMP180;51893;59.754;10.110;2022-11-06T07:12:50;100054.40;;;7.84
65290;BMP180;51893;59.754;10.110;2022-11-06T07:15:20;100054.60;;;7.80
65290;BMP180;51893;59.754;10.110;2022-11-06T07:17:49;100057.20;;;7.70
65290;BMP180;51893;59.754;10.110;2022-11-06T07:20:18;100057.60;;;7.70
65290;BMP180;51893;59.754;10.110;2022-11-06T07:22:46;100052.60;;;7.60
65290;BMP180;51893;59.754;10.110;2022-11-06T07:25:14;100048.60;;;7.50
65290;BMP180;51893;59.754;10.110;2022-11-06T07:27:42;100047.20;;;7.42
65290;BMP180;51893;59.754;10.110;2022-11-06T07:30:11;100045.00;;;7.40
65290;BMP180;51893;59.754;10.110;2022-11-06T07:32:39;100038.40;;;7.40
65290;BMP180;51893;59.754;10.110;2022-11-06T07:35:09;100038.20;;;7.36
65290;BMP180;51893;59.754;10.110;2022-11-06T07:37:39;100052.60;;;7.28
65290;BMP180;51893;59.754;10.110;2022-11-06T07:40:08;100056.60;;;7.16
65290;BMP180;51893;59.754;10.110;2022-11-06T07:42:36;100055.60;;;7.00
65290;BMP180;51893;59.754;10.110;2022-11-06T07:45:11;100054.60;;;7.00
65290;BMP180;51893;59.754;10.110;2022-11-06T07:47:39;100053.20;;;6.90
65290;BMP180;51893;59.754;10.110;2022-11-06T07:50:08;100056.20;;;6.80
65290;BMP180;51893;59.754;10.110;2022-11-06T07:52:35;100055.20;;;6.80
65290;BMP180;51893;59.754;10.110;2022-11-06T07:55:08;100052.40;;;6.80
65290;BMP180;51893;59.754;10.110;2022-11-06T07:57:35;100048.60;;;6.70
65290;BMP180;51893;59.754;10.110;2022-11-06T08:00:05;100049.00;;;6.70
65290;BMP180;51893;59.754;10.110;2022-11-06T08:02:34;100047.80;;;6.70
65290;BMP180;51893;59.754;10.110;2022-11-06T08:05:04;100044.00;;;6.70
65290;BMP180;51893;59.754;10.110;2022-11-06T08:07:34;100044.00;;;6.70
65290;BMP180;51893;59.754;10.110;2022-11-06T08:10:06;100045.40;;;6.70
65290;BMP180;51893;59.754;10.110;2022-11-06T08:12:34;100034.60;;;6.70
65290;BMP180;51893;59.754;10.110;2022-11-06T08:15:03;100036.20;;;6.76
65290;BMP180;51893;59.754;10.110;2022-11-06T08:17:32;100034.60;;;6.70
65290;BMP180;51893;59.754;10.110;2022-11-06T08:20:01;100031.20;;;6.70
65290;BMP180;51893;59.754;10.110;2022-11-06T08:22:29;100019.40;;;6.70
65290;BMP180;51893;59.754;10.110;2022-11-06T08:24:57;100015.80;;;6.60
65290;BMP180;51893;59.754;10.110;2022-11-06T08:27:28;100014.80;;;6.60
65290;BMP180;51893;59.754;10.110;2022-11-06T08:29:56;100014.40;;;6.70
65290;BMP180;51893;59.754;10.110;2022-11-06T08:32:27;100025.20;;;6.60
65290;BMP180;51893;59.754;10.110;2022-11-06T08:34:57;100031.40;;;6.66
65290;BMP180;51893;59.754;10.110;2022-11-06T08:37:27;100025.40;;;6.70
65290;BMP180;51893;59.754;10.110;2022-11-06T08:39:55;100020.40;;;6.60
65290;BMP180;51893;59.754;10.110;2022-11-06T08:42:23;100023.80;;;6.60
65290;BMP180;51893;59.754;10.110;2022-11-06T08:44:51;100041.80;;;6.60
65290;BMP180;51893;59.754;10.110;2022-11-06T08:47:22;100052.20;;;6.60
65290;BMP180;51893;59.754;10.110;2022-11-06T08:49:52;100047.20;;;6.60
65290;BMP180;51893;59.754;10.110;2022-11-06T08:52:21;100044.80;;;6.60
65290;BMP180;51893;59.754;10.110;2022-11-06T08:54:51;100036.60;;;6.68
65290;BMP180;51893;59.754;10.110;2022-11-06T08:57:18;100039.40;;;6.70
65290;BMP180;51893;59.754;10.110;2022-11-06T08:59:46;100038.80;;;6.70
65290;BMP180;51893;59.754;10.110;2022-11-06T09:02:16;100041.00;;;6.70
65290;BMP180;51893;59.754;10.110;2022-11-06T09:04:45;100036.80;;;6.80
65290;BMP180;51893;59.754;10.110;2022-11-06T09:07:15;100041.20;;;6.80
65290;BMP180;51893;59.754;10.110;2022-11-06T09:09:43;100044.60;;;6.70
65290;BMP180;51893;59.754;10.110;2022-11-06T09:12:19;100046.00;;;6.70
65290;BMP180;51893;59.754;10.110;2022-11-06T09:14:47;100040.20;;;6.70
65290;BMP180;51893;59.754;10.110;2022-11-06T09:17:16;100045.00;;;6.70
65290;BMP180;51893;59.754;10.110;2022-11-06T09:19:50;100044.60;;;6.70
65290;BMP180;51893;59.754;10.110;2022-11-06T09:22:21;100043.60;;;6.70
65290;BMP180;51893;59.754;10.110;2022-11-06T09:24:53;100037.00;;;6.70
65290;BMP180;51893;59.754;10.110;2022-11-06T09:27:31;100037.20;;;6.70
65290;BMP180;51893;59.754;10.110;2022-11-06T09:29:59;100029.60;;;6.70
65290;BMP180;51893;59.754;10.110;2022-11-06T09:32:30;100032.80;;;6.80
65290;BMP180;51893;59.754;10.110;2022-11-06T09:34:57;100034.00;;;6.80
65290;BMP180;51893;59.754;10.110;2022-11-06T09:37:30;100031.40;;;6.80
65290;BMP180;51893;59.754;10.110;2022-11-06T09:40:02;100032.40;;;6.86
65290;BMP180;51893;59.754;10.110;2022-11-06T09:46:22;100023.00;;;6.90
65290;BMP180;51893;59.754;10.110;2022-11-06T09:49:21;100018.80;;;7.00
65290;BMP180;51893;59.754;10.110;2022-11-06T09:52:14;100018.80;;;7.00
65290;BMP180;51893;59.754;10.110;2022-11-06T09:54:56;100025.60;;;7.02
65290;BMP180;51893;59.754;10.110;2022-11-06T09:57:54;100029.20;;;7.00
65290;BMP180;51893;59.754;10.110;2022-11-06T10:00:24;100028.60;;;7.00
65290;BMP180;51893;59.754;10.110;2022-11-06T10:03:01;100029.40;;;6.98
65290;BMP180;51893;59.754;10.110;2022-11-06T10:05:37;100030.20;;;7.00
65290;BMP180;51893;59.754;10.110;2022-11-06T10:08:34;100035.60;;;7.00
65290;BMP180;51893;59.754;10.110;2022-11-06T10:19:38;100058.80;;;7.00
65290;BMP180;51893;59.754;10.110;2022-11-06T10:27:25;100060.20;;;7.32
65290;BMP180;51893;59.754;10.110;2022-11-06T10:30:17;100057.40;;;7.52
65290;BMP180;51893;59.754;10.110;2022-11-06T10:36:02;100065.60;;;7.90
65290;BMP180;51893;59.754;10.110;2022-11-06T10:38:42;100064.20;;;8.10
65290;BMP180;51893;59.754;10.110;2022-11-06T10:41:22;100071.40;;;8.20
65290;BMP180;51893;59.754;10.110;2022-11-06T10:44:09;100076.60;;;8.20
65290;BMP180;51893;59.754;10.110;2022-11-06T10:47:11;100079.00;;;8.30
65290;BMP180;51893;59.754;10.110;2022-11-06T10:50:12;100086.80;;;8.30
65290;BMP180;51893;59.754;10.110;2022-11-06T10:52:54;100086.00;;;8.30
65290;BMP180;51893;59.754;10.110;2022-11-06T10:55:39;100088.00;;;8.30
65290;BMP180;51893;59.754;10.110;2022-11-06T10:58:31;100093.40;;;8.20
65290;BMP180;51893;59.754;10.110;2022-11-06T11:01:04;100093.00;;;8.20
65290;BMP180;51893;59.754;10.110;2022-11-06T11:03:41;100098.00;;;8.10
65290;BMP180;51893;59.754;10.110;2022-11-06T11:06:10;100092.20;;;8.04
65290;BMP180;51893;59.754;10.110;2022-11-06T11:08:48;100079.00;;;8.10
65290;BMP180;51893;59.754;10.110;2022-11-06T11:11:24;100067.60;;;8.22
65290;BMP180;51893;59.754;10.110;2022-11-06T11:16:40;100063.60;;;8.50
65290;BMP180;51893;59.754;10.110;2022-11-06T11:19:26;100069.60;;;8.52
65290;BMP180;51893;59.754;10.110;2022-11-06T11:22:02;100075.60;;;8.60
65290;BMP180;51893;59.754;10.110;2022-11-06T11:24:31;100074.20;;;8.60
65290;BMP180;51893;59.754;10.110;2022-11-06T11:27:04;100076.40;;;8.60
65290;BMP180;51893;59.754;10.110;2022-11-06T11:29:45;100079.20;;;8.50
65290;BMP180;51893;59.754;10.110;2022-11-06T11:32:20;100085.00;;;8.50
65290;BMP180;51893;59.754;10.110;2022-11-06T11:34:52;100090.80;;;8.50
65290;BMP180;51893;59.754;10.110;2022-11-06T11:37:36;100092.80;;;8.40
65290;BMP180;51893;59.754;10.110;2022-11-06T11:40:35;100087.80;;;8.40
65290;BMP180;51893;59.754;10.110;2022-11-06T11:43:22;100093.40;;;8.50
65290;BMP180;51893;59.754;10.110;2022-11-06T11:48:54;100097.20;;;8.40
65290;BMP180;51893;59.754;10.110;2022-11-06T11:51:42;100100.40;;;8.40
65290;BMP180;51893;59.754;10.110;2022-11-06T11:57:04;100107.00;;;8.30
65290;BMP180;51893;59.754;10.110;2022-11-06T12:00:04;100105.80;;;8.30
65290;BMP180;51893;59.754;10.110;2022-11-06T12:02:47;100109.20;;;8.30
65290;BMP180;51893;59.754;10.110;2022-11-06T12:05:36;100107.20;;;8.40
65290;BMP180;51893;59.754;10.110;2022-11-06T12:08:12;100113.20;;;8.40
65290;BMP180;51893;59.754;10.110;2022-11-06T12:10:43;100118.80;;;8.30
65290;BMP180;51893;59.754;10.110;2022-11-06T12:13:21;100120.00;;;8.22
65290;BMP180;51893;59.754;10.110;2022-11-06T12:16:14;100123.20;;;8.20
65290;BMP180;51893;59.754;10.110;2022-11-06T12:18:54;100125.40;;;8.20
65290;BMP180;51893;59.754;10.110;2022-11-06T12:21:33;100126.20;;;8.10
65290;BMP180;51893;59.754;10.110;2022-11-06T12:24:15;100126.00;;;8.00
65290;BMP180;51893;59.754;10.110;2022-11-06T12:27:11;100125.20;;;8.00
65290;BMP180;51893;59.754;10.110;2022-11-06T12:30:23;100129.80;;;7.94
65290;BMP180;51893;59.754;10.110;2022-11-06T12:33:15;100127.20;;;7.90
65290;BMP180;51893;59.754;10.110;2022-11-06T12:35:54;100129.20;;;7.80
65290;BMP180;51893;59.754;10.110;2022-11-06T12:38:47;100137.80;;;7.80
65290;BMP180;51893;59.754;10.110;2022-11-06T12:41:36;100143.20;;;7.84
65290;BMP180;51893;59.754;10.110;2022-11-06T12:44:17;100145.60;;;7.80
65290;BMP180;51893;59.754;10.110;2022-11-06T12:47:19;100155.40;;;7.90
65290;BMP180;51893;59.754;10.110;2022-11-06T13:11:37;100177.00;;;8.00
65290;BMP180;51893;59.754;10.110;2022-11-06T13:20:04;100169.40;;;8.00
65290;BMP180;51893;59.754;10.110;2022-11-06T13:26:33;100164.60;;;8.00
65290;BMP180;51893;59.754;10.110;2022-11-06T13:29:15;100158.60;;;8.00
65290;BMP180;51893;59.754;10.110;2022-11-06T13:31:53;100162.80;;;8.04
65290;BMP180;51893;59.754;10.110;2022-11-06T13:34:31;100162.00;;;8.10
65290;BMP180;51893;59.754;10.110;2022-11-06T13:37:13;100158.20;;;8.10
65290;BMP180;51893;59.754;10.110;2022-11-06T13:40:01;100165.20;;;8.00
65290;BMP180;51893;59.754;10.110;2022-11-06T13:42:56;100163.20;;;8.00
65290;BMP180;51893;59.754;10.110;2022-11-06T13:49:11;100160.60;;;8.00
65290;BMP180;51893;59.754;10.110;2022-11-06T13:51:57;100162.80;;;8.08
65290;BMP180;51893;59.754;10.110;2022-11-06T13:55:03;100162.80;;;8.08
65290;BMP180;51893;59.754;10.110;2022-11-06T14:01:32;100183.20;;;8.08
65290;BMP180;51893;59.754;10.110;2022-11-06T14:04:24;100188.80;;;8.02
65290;BMP180;51893;59.754;10.110;2022-11-06T14:07:01;100192.00;;;8.00
65290;BMP180;51893;59.754;10.110;2022-11-06T14:09:36;100204.40;;;8.04
65290;BMP180;51893;59.754;10.110;2022-11-06T14:12:20;100213.60;;;8.02
65290;BMP180;51893;59.754;10.110;2022-11-06T14:15:15;100220.20;;;8.00
65290;BMP180;51893;59.754;10.110;2022-11-06T14:18:00;100213.60;;;8.02
65290;BMP180;51893;59.754;10.110;2022-11-06T14:20:37;100215.20;;;8.00
65290;BMP180;51893;59.754;10.110;2022-11-06T14:26:12;100229.40;;;8.10
65290;BMP180;51893;59.754;10.110;2022-11-06T14:28:44;100229.20;;;8.10
65290;BMP180;51893;59.754;10.110;2022-11-06T14:32:04;100230.80;;;8.10
65290;BMP180;51893;59.754;10.110;2022-11-06T14:34:41;100232.20;;;8.00
65290;BMP180;51893;59.754;10.110;2022-11-06T14:42:45;100226.00;;;8.10
65290;BMP180;51893;59.754;10.110;2022-11-06T14:45:19;100216.00;;;8.10
65290;BMP180;51893;59.754;10.110;2022-11-06T14:53:19;100209.20;;;8.10
65290;BMP180;51893;59.754;10.110;2022-11-06T14:56:08;100204.80;;;8.00
65290;BMP180;51893;59.754;10.110;2022-11-06T14:58:50;100202.40;;;8.00
65290;BMP180;51893;59.754;10.110;2022-11-06T15:01:32;100202.80;;;7.90
65290;BMP180;51893;59.754;10.110;2022-11-06T15:04:18;100198.60;;;7.90
65290;BMP180;51893;59.754;10.110;2022-11-06T15:07:06;100190.80;;;8.00
65290;BMP180;51893;59.754;10.110;2022-11-06T15:09:46;100191.00;;;8.10
65290;BMP180;51893;59.754;10.110;2022-11-06T15:15:32;100204.60;;;8.10
65290;BMP180;51893;59.754;10.110;2022-11-06T15:18:03;100198.00;;;8.10
65290;BMP180;51893;59.754;10.110;2022-11-06T15:20:34;100195.20;;;8.08
65290;BMP180;51893;59.754;10.110;2022-11-06T15:26:32;100194.60;;;8.10
65290;BMP180;51893;59.754;10.110;2022-11-06T15:31:51;100200.40;;;8.10
65290;BMP180;51893;59.754;10.110;2022-11-06T15:34:30;100204.20;;;8.10
65290;BMP180;51893;59.754;10.110;2022-11-06T15:37:20;100213.20;;;8.10
65290;BMP180;51893;59.754;10.110;2022-11-06T15:39:55;100222.80;;;8.10
65290;BMP180;51893;59.754;10.110;2022-11-06T15:42:34;100225.00;;;8.10
65290;BMP180;51893;59.754;10.110;2022-11-06T15:47:54;100229.00;;;8.20
65290;BMP180;51893;59.754;10.110;2022-11-06T15:50:34;100231.60;;;8.20
65290;BMP180;51893;59.754;10.110;2022-11-06T15:56:00;100236.20;;;8.14
65290;BMP180;51893;59.754;10.110;2022-11-06T15:58:37;100234.60;;;8.10
65290;BMP180;51893;59.754;10.110;2022-11-06T16:01:09;100232.40;;;8.10
65290;BMP180;51893;59.754;10.110;2022-11-06T16:03:50;100221.40;;;8.08
65290;BMP180;51893;59.754;10.110;2022-11-06T16:06:20;100215.00;;;8.10
65290;BMP180;51893;59.754;10.110;2022-11-06T16:08:50;100214.40;;;8.10
65290;BMP180;51893;59.754;10.110;2022-11-06T16:11:19;100220.40;;;8.10
65290;BMP180;51893;59.754;10.110;2022-11-06T16:13:49;100215.60;;;8.10
65290;BMP180;51893;59.754;10.110;2022-11-06T16:16:55;100209.60;;;8.00
65290;BMP180;51893;59.754;10.110;2022-11-06T16:19:32;100208.60;;;8.08
65290;BMP180;51893;59.754;10.110;2022-11-06T16:22:13;100209.80;;;8.00
65290;BMP180;51893;59.754;10.110;2022-11-06T16:24:55;100221.40;;;7.90
65290;BMP180;51893;59.754;10.110;2022-11-06T16:27:26;100224.00;;;7.90
65290;BMP180;51893;59.754;10.110;2022-11-06T16:30:00;100220.80;;;7.90
65290;BMP180;51893;59.754;10.110;2022-11-06T16:32:38;100217.20;;;7.90
65290;BMP180;51893;59.754;10.110;2022-11-06T16:35:35;100220.00;;;7.86
65290;BMP180;51893;59.754;10.110;2022-11-06T16:38:29;100224.80;;;7.80
65290;BMP180;51893;59.754;10.110;2022-11-06T16:41:19;100224.40;;;7.86
65290;BMP180;51893;59.754;10.110;2022-11-06T16:47:18;100230.00;;;7.96
65290;BMP180;51893;59.754;10.110;2022-11-06T16:49:51;100229.60;;;8.00
65290;BMP180;51893;59.754;10.110;2022-11-06T16:52:32;100231.00;;;8.00
65290;BMP180;51893;59.754;10.110;2022-11-06T16:57:54;100241.20;;;8.10